Time;durP1;ratioP1;P1;durP2;ratioP2;P2;SDS_P1;SDS_P2;PMS_P1;PMS_P2;Temp;Humidity;BMP_temperature;BMP_pressure;BME280_temperature;BME280_humidity;BME280_pressure;Samples;Min_cycle;Max_cycle;Signal;HPM_P1;HPM_P2
2023/08/02 00:01:23;;;;;;;2.43;2.00;;;15.40;99.90;;;;;;5034764;28;20555;-71
2023/08/02 00:03:49;;;;;;;2.43;1.77;;;15.30;99.90;;;;;;5034246;28;20183;-71
2023/08/02 00:06:14;;;;;;;2.33;1.80;;;15.30;99.90;;;;;;5034973;28;20164;-69
2023/08/02 00:08:41;;;;;;;2.80;2.07;;;15.30;99.90;;;;;;5034822;28;20199;-71
2023/08/02 00:11:16;;;;;;;2.83;2.00;;;15.40;99.90;;;;;;5034356;28;20178;-70
2023/08/02 00:13:42;;;;;;;2.10;2.00;;;15.40;99.90;;;;;;5033384;28;20795;-70
2023/08/02 00:16:10;;;;;;;3.13;2.20;;;15.40;99.90;;;;;;5033145;28;20410;-69
2023/08/02 00:18:35;;;;;;;2.77;2.50;;;15.30;99.90;;;;;;5035320;28;20511;-70
2023/08/02 00:21:01;;;;;;;2.57;2.37;;;15.30;99.90;;;;;;5035521;28;20835;-70
2023/08/02 00:23:27;;;;;;;7.53;2.87;;;15.30;99.90;;;;;;5035633;28;20168;-70
2023/08/02 00:25:52;;;;;;;8.03;2.60;;;15.30;99.90;;;;;;5031794;28;20192;-70
2023/08/02 00:28:18;;;;;;;2.83;2.33;;;15.30;99.90;;;;;;5034713;28;20213;-70
2023/08/02 00:30:46;;;;;;;2.07;1.97;;;15.30;99.90;;;;;;5035156;28;20155;-70
2023/08/02 00:33:12;;;;;;;8.00;2.33;;;15.20;99.90;;;;;;5035186;28;20163;-71
2023/08/02 00:35:49;;;;;;;2.20;2.00;;;15.20;99.90;;;;;;5032605;28;20414;-70
2023/08/02 00:38:15;;;;;;;10.00;2.20;;;15.30;99.90;;;;;;5034336;28;20482;-70
2023/08/02 00:40:41;;;;;;;3.60;2.50;;;15.30;99.90;;;;;;5017904;28;20427;-71
2023/08/02 00:43:09;;;;;;;2.50;2.30;;;15.20;99.90;;;;;;5013623;28;20790;-70
2023/08/02 00:45:36;;;;;;;6.50;1.80;;;15.30;99.90;;;;;;5013597;28;20403;-70
2023/08/02 00:48:02;;;;;;;2.53;2.07;;;15.30;99.90;;;;;;5013531;28;20516;-71
2023/08/02 00:50:30;;;;;;;2.70;1.70;;;15.30;99.90;;;;;;5013930;28;20513;-69
2023/08/02 00:52:57;;;;;;;2.83;1.90;;;15.30;99.90;;;;;;5021662;28;20519;-70
2023/08/02 00:55:24;;;;;;;2.17;1.97;;;15.30;99.90;;;;;;5033728;28;20406;-70
2023/08/02 00:57:51;;;;;;;4.93;4.43;;;15.30;99.90;;;;;;5034712;28;20426;-70
2023/08/02 01:00:16;;;;;;;2.50;2.30;;;15.30;99.90;;;;;;5034586;28;20407;-71
2023/08/02 01:02:42;;;;;;;6.27;2.30;;;15.40;99.90;;;;;;5033459;28;20430;-70
2023/08/02 01:05:08;;;;;;;2.03;1.93;;;15.30;99.90;;;;;;5032411;28;20705;-70
2023/08/02 01:07:53;;;;;;;2.70;2.50;;;15.30;99.90;;;;;;5027419;28;20208;-71
2023/08/02 01:10:28;;;;;;;2.67;2.37;;;15.30;99.90;;;;;;5014925;28;20204;-70
2023/08/02 01:12:56;;;;;;;2.77;2.57;;;15.40;99.90;;;;;;5013675;28;20415;-73
2023/08/02 01:15:24;;;;;;;3.00;2.80;;;15.30;99.90;;;;;;5013953;28;20478;-70
2023/08/02 01:17:52;;;;;;;3.47;3.20;;;15.30;99.90;;;;;;5014491;28;20431;-70
2023/08/02 01:20:18;;;;;;;3.90;3.60;;;15.30;99.90;;;;;;5013303;28;20468;-71
2023/08/02 01:22:43;;;;;;;4.53;4.23;;;15.30;99.90;;;;;;5022937;28;20434;-71
2023/08/02 01:25:10;;;;;;;4.67;4.27;;;15.30;99.90;;;;;;5015579;28;20259;-70
2023/08/02 01:27:42;;;;;;;7.00;4.30;;;15.30;99.90;;;;;;5032117;28;20473;-70
2023/08/02 01:30:13;;;;;;;4.63;4.07;;;15.30;99.90;;;;;;5034278;28;20400;-70
2023/08/02 01:32:39;;;;;;;4.13;3.73;;;15.30;99.90;;;;;;5033191;28;20418;-71
2023/08/02 01:35:05;;;;;;;4.73;4.33;;;15.40;99.90;;;;;;5033306;28;20399;-71
2023/08/02 01:37:34;;;;;;;7.50;4.90;;;15.40;99.90;;;;;;5016063;28;20257;-70
2023/08/02 01:40:00;;;;;;;5.47;4.97;;;15.50;99.90;;;;;;5016083;28;20418;-70
2023/08/02 01:42:25;;;;;;;4.83;4.43;;;15.40;99.90;;;;;;5031967;28;20441;-71
2023/08/02 01:44:51;;;;;;;8.73;5.53;;;15.50;99.90;;;;;;5033670;28;20671;-71
2023/08/02 01:47:17;;;;;;;6.47;5.77;;;15.50;99.90;;;;;;5032797;28;20240;-70
2023/08/02 01:49:43;;;;;;;6.33;5.27;;;15.50;99.90;;;;;;5032831;28;20313;-70
2023/08/02 01:52:09;;;;;;;7.00;6.30;;;15.50;99.90;;;;;;5032785;28;20921;-70
2023/08/02 01:54:35;;;;;;;5.97;5.27;;;15.50;99.90;;;;;;5033326;28;20399;-70
2023/08/02 01:57:01;;;;;;;8.67;6.70;;;15.40;99.90;;;;;;5033006;28;20552;-70
2023/08/02 01:59:27;;;;;;;7.40;6.53;;;15.40;99.90;;;;;;5032994;28;20406;-72
2023/08/02 02:01:53;;;;;;;6.30;5.70;;;15.50;99.90;;;;;;5032510;28;20172;-70
2023/08/02 02:04:18;;;;;;;5.70;5.20;;;15.40;99.90;;;;;;5033480;28;20168;-70
2023/08/02 02:06:44;;;;;;;8.80;5.90;;;15.40;99.90;;;;;;5030604;28;20441;-81
2023/08/02 02:09:10;;;;;;;6.37;5.77;;;15.40;99.90;;;;;;5033251;28;20210;-70
2023/08/02 02:11:35;;;;;;;6.80;6.20;;;15.30;99.90;;;;;;5033661;28;20199;-70
2023/08/02 02:14:02;;;;;;;8.77;6.67;;;15.30;99.90;;;;;;5032167;28;20168;-70
2023/08/02 02:16:28;;;;;;;11.60;7.87;;;15.30;99.90;;;;;;5032458;28;20194;-70
2023/08/02 02:18:54;;;;;;;8.83;6.60;;;15.30;99.90;;;;;;5032299;28;20461;-71
2023/08/02 02:21:19;;;;;;;7.23;6.50;;;15.30;99.90;;;;;;5033442;28;20172;-70
2023/08/02 02:23:45;;;;;;;15.43;6.70;;;15.30;99.90;;;;;;5033191;28;20772;-70
2023/08/02 02:26:11;;;;;;;7.70;6.63;;;15.30;99.90;;;;;;5031011;28;20182;-70
2023/08/02 02:28:37;;;;;;;7.07;6.30;;;15.30;99.90;;;;;;5031865;28;20257;-70
2023/08/02 02:31:03;;;;;;;19.07;7.20;;;15.40;99.90;;;;;;5033413;28;20891;-70
2023/08/02 02:33:28;;;;;;;6.57;5.90;;;15.30;99.90;;;;;;5015708;28;20259;-70
2023/08/02 02:35:54;;;;;;;13.27;6.47;;;15.30;99.90;;;;;;5012075;28;20164;-70
2023/08/02 02:38:20;;;;;;;13.47;6.50;;;15.30;99.90;;;;;;5013618;28;20194;-70
2023/08/02 02:40:45;;;;;;;7.03;6.33;;;15.30;99.90;;;;;;5013474;28;20195;-70
2023/08/02 02:43:11;;;;;;;7.27;5.80;;;15.30;99.90;;;;;;5023757;28;20186;-70
2023/08/02 02:45:37;;;;;;;8.53;6.00;;;15.20;99.90;;;;;;5027361;28;20639;-70
2023/08/02 02:48:02;;;;;;;9.47;6.03;;;15.30;99.90;;;;;;5012630;28;20261;-70
2023/08/02 02:50:29;;;;;;;6.77;6.17;;;15.30;99.90;;;;;;5013449;28;20184;-70
2023/08/02 02:52:54;;;;;;;7.53;6.10;;;15.30;99.90;;;;;;5013487;28;20157;-70
2023/08/02 02:55:20;;;;;;;6.83;6.07;;;15.30;99.90;;;;;;5027184;28;20430;-70
2023/08/02 02:57:46;;;;;;;6.53;5.93;;;15.20;99.90;;;;;;5031947;28;20195;-71
2023/08/02 03:00:12;;;;;;;6.83;6.13;;;15.20;99.90;;;;;;5031667;28;20172;-70
2023/08/02 03:02:38;;;;;;;9.53;5.90;;;15.30;99.90;;;;;;5032986;28;20660;-69
2023/08/02 03:05:04;;;;;;;8.13;6.10;;;15.30;99.90;;;;;;5032018;28;20408;-75
2023/08/02 03:07:30;;;;;;;7.50;5.73;;;15.30;99.90;;;;;;5032695;28;20611;-70
2023/08/02 03:09:56;;;;;;;8.13;5.63;;;15.30;99.90;;;;;;5036776;28;20418;-70
2023/08/02 03:12:23;;;;;;;8.37;6.10;;;15.30;99.90;;;;;;5036494;28;20202;-71
2023/08/02 03:14:49;;;;;;;7.87;5.97;;;15.40;99.90;;;;;;5036250;28;20414;-76
2023/08/02 03:17:14;;;;;;;9.33;5.87;;;15.40;99.90;;;;;;5036004;28;20907;-70
2023/08/02 03:19:40;;;;;;;5.60;4.93;;;15.40;99.90;;;;;;5036803;28;20617;-71
2023/08/02 03:22:06;;;;;;;6.90;5.57;;;15.40;99.90;;;;;;5034138;28;20615;-72
2023/08/02 03:24:32;;;;;;;6.80;5.70;;;15.40;99.90;;;;;;5035114;28;20575;-70
2023/08/02 03:26:58;;;;;;;9.73;5.27;;;15.30;99.90;;;;;;5035618;28;20547;-70
2023/08/02 03:29:24;;;;;;;10.93;5.23;;;15.30;99.90;;;;;;5034970;28;20175;-75
2023/08/02 03:31:50;;;;;;;13.00;6.50;;;15.30;99.90;;;;;;5034974;28;20978;-71
2023/08/02 03:34:16;;;;;;;6.37;5.87;;;15.30;99.90;;;;;;5035039;28;20497;-70
2023/08/02 03:36:44;;;;;;;7.97;6.10;;;15.30;99.90;;;;;;5035448;28;20785;-70
2023/08/02 03:39:10;;;;;;;8.47;6.00;;;15.40;99.90;;;;;;5036168;28;20258;-70
2023/08/02 03:41:37;;;;;;;8.57;6.20;;;15.30;99.90;;;;;;5035452;28;20405;-73
2023/08/02 03:44:03;;;;;;;6.40;5.80;;;15.40;99.90;;;;;;5034980;28;20857;-70
2023/08/02 03:46:28;;;;;;;9.07;8.27;;;15.40;99.90;;;;;;5032708;28;20802;-71
2023/08/02 03:48:54;;;;;;;10.93;6.30;;;15.40;99.90;;;;;;5035838;28;20453;-70
2023/08/02 03:51:20;;;;;;;8.77;7.93;;;15.40;99.90;;;;;;5035933;28;20188;-71
2023/08/02 03:53:46;;;;;;;7.00;6.20;;;15.40;99.90;;;;;;5035438;28;20187;-70
2023/08/02 03:56:11;;;;;;;8.47;7.27;;;15.40;99.90;;;;;;5034981;28;20254;-72
2023/08/02 03:58:37;;;;;;;8.23;7.10;;;15.50;99.90;;;;;;5034623;28;20211;-70
2023/08/02 04:01:03;;;;;;;8.60;7.30;;;15.50;99.90;;;;;;5034662;28;20202;-70
2023/08/02 04:03:29;;;;;;;8.77;7.33;;;15.50;99.90;;;;;;5035630;28;20697;-71
2023/08/02 04:05:54;;;;;;;8.33;6.47;;;15.50;99.90;;;;;;5033120;28;20179;-71
2023/08/02 04:08:20;;;;;;;10.70;8.43;;;15.50;99.90;;;;;;5034269;28;20211;-70
2023/08/02 04:10:46;;;;;;;15.67;7.97;;;15.50;99.90;;;;;;5033587;28;20176;-70
2023/08/02 04:13:11;;;;;;;9.90;8.30;;;15.50;99.90;;;;;;5035684;28;20171;-71
2023/08/02 04:15:38;;;;;;;10.23;8.10;;;15.50;99.90;;;;;;5034573;28;20251;-78
2023/08/02 04:18:04;;;;;;;11.37;7.50;;;15.60;99.90;;;;;;5034183;28;20510;-70
2023/08/02 04:20:30;;;;;;;11.47;8.47;;;15.60;99.90;;;;;;5033962;28;20176;-70
2023/08/02 04:22:56;;;;;;;14.73;9.20;;;15.60;99.90;;;;;;5034212;28;20189;-70
2023/08/02 04:25:22;;;;;;;11.67;7.90;;;15.60;99.90;;;;;;5034492;28;20493;-70
2023/08/02 04:27:47;;;;;;;10.00;8.17;;;15.60;99.90;;;;;;5035317;28;20676;-72
2023/08/02 04:30:13;;;;;;;12.13;8.87;;;15.70;99.90;;;;;;5034212;28;20174;-70
2023/08/02 04:32:39;;;;;;;12.67;9.53;;;15.70;99.90;;;;;;5034761;28;20172;-70
2023/08/02 04:35:05;;;;;;;10.07;8.20;;;15.70;99.90;;;;;;5033776;28;20176;-71
2023/08/02 04:37:30;;;;;;;8.40;7.30;;;15.70;99.90;;;;;;5034975;28;20321;-71
2023/08/02 04:39:56;;;;;;;12.37;7.90;;;15.70;99.90;;;;;;5035194;28;20486;-72
2023/08/02 04:42:24;;;;;;;18.20;8.93;;;15.80;99.90;;;;;;5033218;28;20627;-72
2023/08/02 04:44:50;;;;;;;10.40;9.17;;;15.80;99.90;;;;;;5034634;28;20179;-70
2023/08/02 04:47:16;;;;;;;14.50;9.13;;;15.80;99.90;;;;;;5033035;28;20461;-70
2023/08/02 04:49:41;;;;;;;19.27;9.63;;;15.80;99.90;;;;;;5050170;28;20180;-71
2023/08/02 04:52:07;;;;;;;11.33;9.00;;;15.80;99.90;;;;;;5031779;28;20180;-70
2023/08/02 04:54:33;;;;;;;11.53;8.93;;;15.80;99.90;;;;;;5024870;28;20175;-71
2023/08/02 04:56:59;;;;;;;11.80;9.10;;;15.70;99.90;;;;;;5013944;28;20196;-70
2023/08/02 04:59:25;;;;;;;17.47;11.00;;;15.70;99.90;;;;;;5014913;28;20734;-68
2023/08/02 05:01:50;;;;;;;10.80;9.50;;;15.70;99.90;;;;;;5014537;28;20172;-68
2023/08/02 05:04:16;;;;;;;12.20;9.13;;;15.80;99.90;;;;;;5014781;28;20172;-68
2023/08/02 05:06:42;;;;;;;15.40;9.67;;;15.80;99.90;;;;;;5030711;28;20214;-68
2023/08/02 05:09:08;;;;;;;19.37;11.30;;;15.90;99.90;;;;;;5034834;28;20198;-68
2023/08/02 05:11:34;;;;;;;13.60;9.20;;;15.90;99.90;;;;;;5033369;28;20783;-70
2023/08/02 05:14:00;;;;;;;15.50;10.97;;;16.00;99.90;;;;;;5028879;28;20918;-70
2023/08/02 05:16:26;;;;;;;13.20;9.77;;;16.00;99.90;;;;;;5031811;28;20414;-70
2023/08/02 05:18:52;;;;;;;17.50;9.80;;;16.00;99.90;;;;;;5033367;28;20233;-69
2023/08/02 05:21:19;;;;;;;13.23;10.00;;;16.10;99.90;;;;;;5021100;28;20771;-70
2023/08/02 05:23:45;;;;;;;16.80;10.03;;;16.10;99.90;;;;;;5029875;28;20651;-69
2023/08/02 05:26:11;;;;;;;13.50;9.70;;;16.10;99.90;;;;;;5033420;28;20914;-70
2023/08/02 05:28:37;;;;;;;13.57;9.33;;;16.00;99.90;;;;;;5034209;28;20458;-71
2023/08/02 05:31:03;;;;;;;12.83;9.83;;;16.10;99.90;;;;;;5020756;28;20184;-70
2023/08/02 05:33:29;;;;;;;17.83;9.90;;;16.20;99.90;;;;;;5013108;28;20399;-70
2023/08/02 05:35:54;;;;;;;11.37;8.70;;;16.20;99.90;;;;;;5032127;28;20764;-70
2023/08/02 05:38:21;;;;;;;16.10;9.20;;;16.30;99.90;;;;;;5033507;28;20241;-72
2023/08/02 05:40:46;;;;;;;11.60;8.07;;;16.30;99.90;;;;;;5034281;28;20540;-72
2023/08/02 05:43:12;;;;;;;11.20;9.63;;;16.30;99.90;;;;;;5032767;28;20442;-70
2023/08/02 05:45:38;;;;;;;11.33;8.83;;;16.20;99.90;;;;;;5033087;28;20211;-70
2023/08/02 05:48:04;;;;;;;10.60;8.77;;;16.20;99.90;;;;;;5031281;28;20215;-75
2023/08/02 05:50:31;;;;;;;12.67;9.23;;;16.30;99.90;;;;;;5033642;28;20175;-70
2023/08/02 05:52:56;;;;;;;15.10;8.43;;;16.30;99.90;;;;;;5033528;28;20414;-71
2023/08/02 05:55:22;;;;;;;14.57;9.13;;;16.40;99.90;;;;;;5031382;28;20414;-70
2023/08/02 05:57:51;;;;;;;11.73;9.23;;;16.50;99.90;;;;;;5032615;28;20203;-70
2023/08/02 06:00:17;;;;;;;14.23;9.13;;;16.40;99.90;;;;;;5033803;28;20175;-70
2023/08/02 06:02:43;;;;;;;14.33;8.43;;;16.40;99.90;;;;;;5032997;28;20798;-70
2023/08/02 06:05:08;;;;;;;14.63;8.57;;;16.50;99.90;;;;;;5031441;28;20560;-70
2023/08/02 06:07:34;;;;;;;9.60;7.60;;;16.60;99.90;;;;;;5032817;28;20274;-70
2023/08/02 06:10:00;;;;;;;7.80;7.00;;;16.50;99.90;;;;;;5032765;28;20172;-69
2023/08/02 06:12:26;;;;;;;11.37;8.00;;;16.50;99.90;;;;;;5032821;28;20175;-70
2023/08/02 06:14:52;;;;;;;19.40;9.47;;;16.40;99.90;;;;;;5031461;28;20442;-71
2023/08/02 06:17:17;;;;;;;13.20;8.40;;;16.40;99.90;;;;;;5032450;28;20280;-70
2023/08/02 06:19:43;;;;;;;10.83;8.27;;;16.40;99.90;;;;;;5033387;28;20572;-70
2023/08/02 06:22:09;;;;;;;9.60;7.80;;;16.40;99.90;;;;;;5033469;28;20301;-73
2023/08/02 06:24:35;;;;;;;9.20;7.90;;;16.40;99.90;;;;;;5031510;28;20174;-70
2023/08/02 06:27:01;;;;;;;10.53;8.50;;;16.40;99.90;;;;;;5032149;28;20450;-71
2023/08/02 06:29:27;;;;;;;10.53;8.30;;;16.50;99.90;;;;;;5032852;28;20462;-70
2023/08/02 06:31:53;;;;;;;10.63;7.57;;;16.60;99.90;;;;;;5033424;28;20170;-70
2023/08/02 06:34:19;;;;;;;10.70;7.93;;;16.70;99.90;;;;;;5031604;28;20168;-70
2023/08/02 06:36:45;;;;;;;8.50;7.60;;;16.70;99.90;;;;;;5031661;28;20290;-71
2023/08/02 06:39:11;;;;;;;7.77;6.73;;;16.80;99.90;;;;;;5014964;28;20937;-74
2023/08/02 06:41:36;;;;;;;8.03;6.33;;;16.90;99.90;;;;;;5033389;28;20182;-71
2023/08/02 06:44:03;;;;;;;7.83;7.03;;;16.90;99.90;;;;;;5037389;28;20167;-71
2023/08/02 06:46:30;;;;;;;12.67;6.97;;;17.00;99.90;;;;;;5023047;28;20168;-70
2023/08/02 06:48:56;;;;;;;11.77;6.90;;;17.10;99.90;;;;;;5017156;28;20964;-71
2023/08/02 06:51:21;;;;;;;8.13;6.77;;;17.10;99.90;;;;;;5029414;28;20449;-70
2023/08/02 06:53:47;;;;;;;7.67;5.80;;;17.20;99.90;;;;;;5036973;28;20179;-71
2023/08/02 06:56:14;;;;;;;5.50;5.00;;;17.30;99.90;;;;;;5036567;28;20163;-71
2023/08/02 06:58:40;;;;;;;6.90;5.43;;;17.30;99.90;;;;;;5037054;28;20206;-71
2023/08/02 07:01:19;;;;;;;5.10;4.60;;;17.30;99.90;;;;;;5035115;28;20414;-70
2023/08/02 07:03:46;;;;;;;7.07;5.60;;;17.20;99.90;;;;;;5034957;28;20564;-70
2023/08/02 07:06:14;;;;;;;5.63;4.60;;;17.10;99.90;;;;;;5036034;28;20469;-71
2023/08/02 07:08:41;;;;;;;5.20;4.80;;;17.00;99.90;;;;;;5035094;28;20545;-73
2023/08/02 07:11:07;;;;;;;7.50;5.37;;;17.10;99.90;;;;;;5023381;28;20867;-70
2023/08/02 07:13:36;;;;;;;11.53;5.07;;;17.20;99.90;;;;;;5017203;28;20496;-72
2023/08/02 07:16:03;;;;;;;5.60;5.00;;;17.30;99.90;;;;;;5016002;28;20409;-71
2023/08/02 07:18:28;;;;;;;8.50;5.23;;;17.40;99.90;;;;;;5016148;28;20426;-70
2023/08/02 07:20:54;;;;;;;4.77;4.37;;;17.50;99.90;;;;;;5016875;28;20876;-70
2023/08/02 07:23:21;;;;;;;6.30;4.93;;;17.50;99.90;;;;;;5016866;28;20168;-70
2023/08/02 07:25:47;;;;;;;10.87;4.50;;;17.60;99.90;;;;;;5015492;28;20220;-71
2023/08/02 07:28:12;;;;;;;5.60;4.33;;;17.60;99.90;;;;;;5015791;28;20559;-70
2023/08/02 07:30:38;;;;;;;3.70;3.50;;;17.80;99.90;;;;;;5027832;28;20184;-70
2023/08/02 07:33:04;;;;;;;5.20;3.60;;;17.80;99.90;;;;;;5035787;28;20179;-70
2023/08/02 07:35:30;;;;;;;5.27;3.93;;;17.80;99.90;;;;;;5035075;28;20563;-70
2023/08/02 07:37:55;;;;;;;7.07;3.60;;;17.80;99.90;;;;;;5036176;28;20199;-72
2023/08/02 07:40:21;;;;;;;3.17;2.97;;;17.80;98.70;;;;;;5036459;28;20195;-70
2023/08/02 07:42:47;;;;;;;5.30;4.20;;;17.90;93.00;;;;;;5036434;28;20640;-70
2023/08/02 07:45:13;;;;;;;10.23;3.80;;;17.90;86.70;;;;;;5033287;28;20190;-71
2023/08/02 07:47:39;;;;;;;8.00;3.70;;;18.00;80.80;;;;;;5034830;28;20230;-73
2023/08/02 07:50:05;;;;;;;4.13;3.47;;;18.10;64.00;;;;;;5035201;28;20186;-71
2023/08/02 07:52:31;;;;;;;4.60;3.30;;;18.10;26.90;;;;;;5035120;28;20494;-71
2023/08/02 07:54:57;;;;;;;6.80;4.37;;;18.10;1.00;;;;;;5035985;28;20433;-72
2023/08/02 07:57:26;;;;;;;3.20;2.70;;;18.10;1.00;;;;;;5034459;28;20532;-71
2023/08/02 07:59:52;;;;;;;4.87;4.47;;;18.10;1.00;;;;;;5032095;28;20430;-71
2023/08/02 08:02:19;;;;;;;3.93;3.63;;;18.20;1.00;;;;;;5035838;28;20406;-71
2023/08/02 08:04:45;;;;;;;4.53;3.57;;;18.10;1.00;;;;;;5034065;28;20406;-71
2023/08/02 08:07:11;;;;;;;3.80;3.30;;;18.10;1.00;;;;;;5034709;28;20418;-72
2023/08/02 08:09:36;;;;;;;4.10;3.70;;;18.00;1.00;;;;;;5036173;28;20611;-70
2023/08/02 08:12:04;;;;;;;3.33;2.93;;;18.00;1.00;;;;;;5034437;28;20207;-71
2023/08/02 08:14:32;;;;;;;11.20;3.33;;;17.80;1.00;;;;;;5035625;28;20168;-70
2023/08/02 08:16:59;;;;;;;3.47;3.00;;;17.80;1.00;;;;;;5034686;28;20441;-71
2023/08/02 08:19:26;;;;;;;2.77;2.57;;;17.70;1.00;;;;;;5035746;28;20914;-71
2023/08/02 08:21:52;;;;;;;2.80;2.60;;;17.60;1.00;;;;;;5034167;28;20476;-71
2023/08/02 08:24:18;;;;;;;3.40;3.10;;;17.60;1.00;;;;;;5034406;28;20434;-71
2023/08/02 08:26:45;;;;;;;2.83;2.63;;;17.50;1.00;;;;;;5016866;28;20446;-70
2023/08/02 08:29:11;;;;;;;2.67;2.57;;;17.50;1.00;;;;;;5034638;28;20461;-70
2023/08/02 08:31:37;;;;;;;3.50;2.90;;;17.60;1.00;;;;;;5035610;28;20544;-71
2023/08/02 08:34:03;;;;;;;4.50;2.60;;;17.60;1.00;;;;;;5035354;28;20898;-71
2023/08/02 08:36:31;;;;;;;2.70;2.60;;;17.70;1.00;;;;;;5034265;28;20176;-70
2023/08/02 08:38:57;;;;;;;8.00;3.00;;;17.80;1.00;;;;;;5032748;28;20931;-70
2023/08/02 08:41:23;;;;;;;2.40;2.03;;;17.90;1.00;;;;;;5026295;28;20461;-70
2023/08/02 08:43:49;;;;;;;3.03;2.70;;;18.00;1.00;;;;;;5018617;28;20435;-70
2023/08/02 08:46:17;;;;;;;3.67;2.43;;;18.00;1.00;;;;;;5033589;28;20417;-71
2023/08/02 08:48:43;;;;;;;1.97;1.77;;;17.90;1.00;;;;;;5034937;28;20465;-70
2023/08/02 08:51:10;;;;;;;3.30;2.93;;;18.00;1.00;;;;;;5034962;28;20422;-70
2023/08/02 08:53:40;;;;;;;3.10;2.03;;;18.10;1.00;;;;;;5034837;28;20211;-70
2023/08/02 08:56:06;;;;;;;2.70;2.50;;;18.20;1.00;;;;;;5032827;28;20421;-71
2023/08/02 08:58:33;;;;;;;2.60;2.40;;;18.40;1.00;;;;;;5033963;28;20834;-71
2023/08/02 09:01:00;;;;;;;2.33;2.23;;;18.50;1.00;;;;;;5024894;28;20243;-71
2023/08/02 09:03:25;;;;;;;2.13;1.93;;;18.60;1.00;;;;;;5027180;28;20449;-70
2023/08/02 09:05:52;;;;;;;2.60;2.07;;;18.70;1.00;;;;;;5017242;28;20510;-71
2023/08/02 09:08:18;;;;;;;1.70;1.60;;;18.80;99.90;;;;;;5025168;28;20233;-72
2023/08/02 09:10:44;;;;;;;1.97;1.60;;;19.00;99.90;;;;;;5013348;28;20954;-71
2023/08/02 09:13:21;;;;;;;3.40;1.93;;;19.10;99.90;;;;;;5031479;28;20176;-71
2023/08/02 09:16:14;;;;;;;1.83;1.40;;;19.10;99.90;;;;;;5033547;28;20171;-71
2023/08/02 09:18:45;;;;;;;2.37;2.17;;;19.20;99.90;;;;;;5033911;28;20426;-71
2023/08/02 09:21:14;;;;;;;1.57;1.47;;;19.20;99.90;;;;;;5016181;28;20813;-71
2023/08/02 09:23:45;;;;;;;1.77;1.30;;;19.30;99.90;;;;;;5034503;28;20457;-70
2023/08/02 09:26:16;;;;;;;2.43;1.50;;;19.30;99.90;;;;;;5027672;28;20477;-70
2023/08/02 09:29:03;;;;;;;2.53;2.17;;;19.50;99.90;;;;;;5027775;28;20469;-70
2023/08/02 09:31:31;;;;;;;1.33;1.20;;;19.70;99.90;;;;;;5014315;28;20403;-71
2023/08/02 09:33:57;;;;;;;1.73;1.50;;;19.80;99.90;;;;;;5014656;28;20406;-72
2023/08/02 09:36:27;;;;;;;1.50;1.40;;;19.70;99.90;;;;;;5016671;28;20423;-72
2023/08/02 09:39:04;;;;;;;1.70;1.60;;;19.70;99.90;;;;;;5014085;28;20195;-71
2023/08/02 09:41:32;;;;;;;1.30;1.20;;;19.60;99.90;;;;;;5028522;28;20438;-71
2023/08/02 09:43:58;;;;;;;2.50;1.57;;;19.50;99.90;;;;;;5032759;28;20446;-71
2023/08/02 09:46:34;;;;;;;3.17;1.87;;;19.50;99.90;;;;;;5030122;28;20473;-72
2023/08/02 09:49:01;;;;;;;1.40;1.30;;;19.40;99.90;;;;;;5033749;28;20453;-72
2023/08/02 09:51:40;;;;;;;4.43;2.40;;;19.30;99.90;;;;;;5032666;28;20442;-70
2023/08/02 09:54:07;;;;;;;3.20;2.03;;;19.30;99.90;;;;;;5033572;28;20390;-71
2023/08/02 09:56:35;;;;;;;1.80;1.70;;;19.20;99.90;;;;;;5032196;28;20406;-71
2023/08/02 09:59:02;;;;;;;2.73;1.87;;;19.30;99.90;;;;;;5033508;28;20505;-72
2023/08/02 10:01:29;;;;;;;3.00;1.67;;;19.60;99.90;;;;;;5027278;28;20435;-71
2023/08/02 10:03:58;;;;;;;3.07;1.80;;;20.10;99.90;;;;;;5012980;28;20427;-71
2023/08/02 10:06:47;;;;;;;2.77;1.80;;;20.40;99.90;;;;;;5017148;28;20426;-70
2023/08/02 10:09:20;;;;;;;2.30;1.60;;;20.70;95.90;;;;;;5033358;28;20489;-71
2023/08/02 10:11:55;;;;;;;1.97;1.30;;;21.20;91.40;;;;;;5033558;28;20478;-73
2023/08/02 10:14:21;;;;;;;2.47;1.60;;;21.50;34.10;;;;;;5022485;28;20509;-72
2023/08/02 10:16:48;;;;;;;1.70;1.30;;;21.60;1.00;;;;;;5016826;28;20446;-73
2023/08/02 10:19:13;;;;;;;2.80;1.20;;;21.40;1.00;;;;;;5014882;28;20445;-71
2023/08/02 10:21:40;;;;;;;1.67;1.27;;;21.10;1.00;;;;;;5033404;28;20757;-71
2023/08/02 10:24:06;;;;;;;2.60;1.60;;;20.70;1.00;;;;;;5033664;28;20179;-71
2023/08/02 10:26:33;;;;;;;1.77;1.57;;;20.50;1.00;;;;;;5032359;28;21036;-73
2023/08/02 10:29:01;;;;;;;2.67;1.60;;;20.30;1.00;;;;;;5033236;28;20445;-72
2023/08/02 10:31:27;;;;;;;1.60;1.50;;;20.40;1.00;;;;;;5032971;28;20407;-72
2023/08/02 10:33:52;;;;;;;3.00;1.53;;;20.40;1.00;;;;;;5029908;28;20433;-73
2023/08/02 10:36:18;;;;;;;3.43;1.30;;;20.40;1.00;;;;;;5032202;28;20171;-71
2023/08/02 10:38:47;;;;;;;2.50;1.50;;;20.50;1.00;;;;;;5033065;28;20191;-72
2023/08/02 10:41:26;;;;;;;2.10;2.00;;;20.60;1.00;;;;;;5033203;28;20225;-73
2023/08/02 10:43:55;;;;;;;2.43;2.10;;;20.80;1.00;;;;;;5020113;28;20472;-72
2023/08/02 10:46:29;;;;;;;2.77;1.77;;;20.90;1.00;;;;;;5031019;28;20433;-73
2023/08/02 10:49:15;;;;;;;3.27;2.10;;;20.90;1.00;;;;;;5032719;28;20445;-73
2023/08/02 10:51:42;;;;;;;3.97;1.70;;;20.90;1.00;;;;;;5014068;28;20585;-72
2023/08/02 10:54:23;;;;;;;1.90;1.70;;;20.80;1.00;;;;;;5013039;28;20414;-71
2023/08/02 10:56:51;;;;;;;5.40;2.10;;;20.80;1.00;;;;;;5011110;28;20586;-72
2023/08/02 10:59:24;;;;;;;3.40;2.20;;;20.80;1.00;;;;;;5017290;28;20521;-72
2023/08/02 11:02:02;;;;;;;2.73;2.40;;;20.90;1.00;;;;;;5017029;28;20465;-72
2023/08/02 11:04:30;;;;;;;7.30;2.67;;;21.10;1.00;;;;;;5012122;28;20787;-72
2023/08/02 11:07:09;;;;;;;4.10;2.70;;;21.20;1.00;;;;;;5010542;28;20939;-72
2023/08/02 11:09:35;;;;;;;3.00;2.30;;;21.20;1.00;;;;;;5012699;28;20473;-72
2023/08/02 11:12:10;;;;;;;2.77;2.67;;;21.30;1.00;;;;;;5022350;28;20434;-71
2023/08/02 11:14:37;;;;;;;2.57;2.37;;;21.20;1.00;;;;;;5033135;28;20175;-72
2023/08/02 11:17:03;;;;;;;2.93;2.53;;;21.30;1.00;;;;;;5018977;28;20533;-74
2023/08/02 11:19:29;;;;;;;4.23;2.30;;;21.40;1.00;;;;;;5025809;28;20500;-73
2023/08/02 11:21:56;;;;;;;2.23;2.03;;;21.50;1.00;;;;;;5022780;28;20527;-72
2023/08/02 11:24:23;;;;;;;4.90;2.67;;;21.50;1.00;;;;;;5023714;28;20521;-72
2023/08/02 11:26:53;;;;;;;2.70;2.50;;;21.50;1.00;;;;;;5028258;28;20445;-73
2023/08/02 11:29:20;;;;;;;9.33;3.60;;;21.50;1.00;;;;;;5034204;28;20501;-74
2023/08/02 11:31:46;;;;;;;3.07;1.90;;;21.50;1.00;;;;;;5030666;28;20791;-73
2023/08/02 11:34:18;;;;;;;3.17;2.60;;;21.60;1.00;;;;;;5034133;28;20422;-73
2023/08/02 11:36:47;;;;;;;2.90;2.30;;;21.50;1.00;;;;;;5028664;28;20500;-72
2023/08/02 11:39:14;;;;;;;2.80;2.60;;;21.50;1.00;;;;;;5013838;28;20918;-77
2023/08/02 11:41:40;;;;;;;3.20;2.60;;;21.50;1.00;;;;;;5024754;28;20413;-70
2023/08/02 11:44:19;;;;;;;2.57;2.20;;;21.40;1.00;;;;;;5021843;28;20813;-73
2023/08/02 11:46:56;;;;;;;3.70;3.03;;;21.40;1.00;;;;;;5024903;28;20682;-75
2023/08/02 11:49:22;;;;;;;5.27;2.87;;;21.30;1.00;;;;;;5027795;28;20445;-74
2023/08/02 11:51:48;;;;;;;5.50;3.07;;;21.10;1.00;;;;;;5034927;28;20475;-73
2023/08/02 11:54:15;;;;;;;3.70;3.10;;;21.10;1.00;;;;;;5035084;28;20430;-73
2023/08/02 11:56:41;;;;;;;3.90;2.40;;;21.10;1.00;;;;;;5034926;28;20254;-72
2023/08/02 11:59:11;;;;;;;5.13;3.67;;;21.00;1.00;;;;;;5035034;28;20437;-72
2023/08/02 12:01:43;;;;;;;5.23;3.37;;;20.90;1.00;;;;;;5026885;28;20430;-75
2023/08/02 12:04:09;;;;;;;4.37;3.17;;;20.80;1.00;;;;;;5034791;28;20751;-72
2023/08/02 12:06:46;;;;;;;4.37;3.03;;;20.70;1.00;;;;;;5034866;28;20528;-73
2023/08/02 12:09:12;;;;;;;5.17;2.80;;;20.70;1.00;;;;;;5034479;28;20461;-73
2023/08/02 12:11:38;;;;;;;3.73;3.40;;;20.70;1.00;;;;;;5034331;28;20406;-73
2023/08/02 12:14:06;;;;;;;4.63;4.07;;;20.60;1.00;;;;;;5035301;28;20171;-73
2023/08/02 12:16:43;;;;;;;5.73;2.53;;;20.60;1.00;;;;;;5034208;28;20963;-73
2023/08/02 12:19:09;;;;;;;4.33;2.90;;;20.50;1.00;;;;;;5035202;28;20695;-74
2023/08/02 12:21:35;;;;;;;9.33;3.03;;;20.50;1.00;;;;;;5034816;28;20420;-73
2023/08/02 12:24:12;;;;;;;4.73;2.73;;;20.40;1.00;;;;;;5035248;28;20501;-75
2023/08/02 12:26:39;;;;;;;4.47;2.70;;;20.20;1.00;;;;;;5033264;28;20329;-73
2023/08/02 12:29:05;;;;;;;9.70;4.07;;;20.10;1.00;;;;;;5035426;28;20449;-73
2023/08/02 12:31:44;;;;;;;3.10;2.90;;;20.10;1.00;;;;;;5035154;28;20395;-73
2023/08/02 12:34:09;;;;;;;3.03;2.83;;;20.00;1.00;;;;;;5035496;28;20743;-73
2023/08/02 12:36:35;;;;;;;10.77;3.40;;;20.00;1.00;;;;;;5032734;28;20403;-72
2023/08/02 12:39:01;;;;;;;4.73;2.70;;;19.90;1.00;;;;;;5034104;28;20406;-71
2023/08/02 12:41:28;;;;;;;4.43;3.13;;;20.00;1.00;;;;;;5025174;28;20262;-72
2023/08/02 12:43:54;;;;;;;3.47;2.70;;;20.00;1.00;;;;;;5015489;28;20168;-71
2023/08/02 12:46:20;;;;;;;4.77;3.73;;;20.10;1.00;;;;;;5029606;28;20416;-72
2023/08/02 12:48:46;;;;;;;4.07;3.27;;;20.10;1.00;;;;;;5015351;28;20459;-72